sensor_id;sensor_type;location;lat;lon;timestamp;pressure;altitude;pressure_sealevel;temperature;humidity
16355;BME280;8287;51.644;8.494;2022-08-01T00:00:29;100294.53;;;22.57;90.45
16355;BME280;8287;51.644;8.494;2022-08-01T00:02:58;100304.19;;;22.51;90.95
16355;BME280;8287;51.644;8.494;2022-08-01T00:05:24;100306.88;;;22.51;90.85
16355;BME280;8287;51.644;8.494;2022-08-01T00:07:51;100302.63;;;22.50;90.69
16355;BME280;8287;51.644;8.494;2022-08-01T00:10:18;100296.06;;;22.51;90.98
16355;BME280;8287;51.644;8.494;2022-08-01T00:12:45;100307.66;;;22.44;91.38
16355;BME280;8287;51.644;8.494;2022-08-01T00:15:15;100304.56;;;22.42;91.32
16355;BME280;8287;51.644;8.494;2022-08-01T00:17:42;100303.00;;;22.41;91.25
16355;BME280;8287;51.644;8.494;2022-08-01T00:20:13;100309.13;;;22.38;91.65
16355;BME280;8287;51.644;8.494;2022-08-01T00:22:40;100301.88;;;22.42;91.23
16355;BME280;8287;51.644;8.494;2022-08-01T00:25:07;100309.91;;;22.35;91.62
16355;BME280;8287;51.644;8.494;2022-08-01T00:27:34;100300.66;;;22.36;91.26
16355;BME280;8287;51.644;8.494;2022-08-01T00:30:00;100297.16;;;22.32;91.57
16355;BME280;8287;51.644;8.494;2022-08-01T00:32:29;100298.72;;;22.26;92.28
16355;BME280;8287;51.644;8.494;2022-08-01T00:34:56;100300.63;;;22.26;92.27
16355;BME280;8287;51.644;8.494;2022-08-01T00:37:24;100295.19;;;22.19;92.75
16355;BME280;8287;51.644;8.494;2022-08-01T00:39:51;100297.50;;;22.13;92.97
16355;BME280;8287;51.644;8.494;2022-08-01T00:42:17;100294.78;;;22.06;93.39
16355;BME280;8287;51.644;8.494;2022-08-01T00:44:44;100297.91;;;22.19;93.01
16355;BME280;8287;51.644;8.494;2022-08-01T00:47:11;100304.81;;;22.16;92.94
16355;BME280;8287;51.644;8.494;2022-08-01T00:49:37;100294.84;;;22.27;92.51
16355;BME280;8287;51.644;8.494;2022-08-01T00:52:05;100292.53;;;22.33;91.93
16355;BME280;8287;51.644;8.494;2022-08-01T00:54:33;100289.81;;;22.22;92.65
16355;BME280;8287;51.644;8.494;2022-08-01T00:57:00;100297.91;;;22.26;92.22
16355;BME280;8287;51.644;8.494;2022-08-01T00:59:27;100290.97;;;22.21;92.31
16355;BME280;8287;51.644;8.494;2022-08-01T01:01:54;100292.53;;;22.26;92.07
16355;BME280;8287;51.644;8.494;2022-08-01T01:04:21;100290.22;;;22.17;92.51
16355;BME280;8287;51.644;8.494;2022-08-01T01:06:53;100295.22;;;22.22;92.40
16355;BME280;8287;51.644;8.494;2022-08-01T01:09:31;100296.34;;;22.14;92.63
16355;BME280;8287;51.644;8.494;2022-08-01T01:12:11;100297.16;;;22.22;92.01
16355;BME280;8287;51.644;8.494;2022-08-01T01:14:41;100293.28;;;22.23;92.23
16355;BME280;8287;51.644;8.494;2022-08-01T01:17:23;100288.66;;;22.27;91.59
16355;BME280;8287;51.644;8.494;2022-08-01T01:19:56;100288.66;;;22.23;92.13
16355;BME280;8287;51.644;8.494;2022-08-01T01:22:55;100287.50;;;22.31;91.81
16355;BME280;8287;51.644;8.494;2022-08-01T01:25:43;100294.06;;;22.27;92.14
16355;BME280;8287;51.644;8.494;2022-08-01T01:28:17;100291.38;;;22.27;91.85
16355;BME280;8287;51.644;8.494;2022-08-01T01:30:50;100294.06;;;22.30;91.86
16355;BME280;8287;51.644;8.494;2022-08-01T01:33:19;100291.00;;;22.32;91.92
16355;BME280;8287;51.644;8.494;2022-08-01T01:35:50;100286.34;;;22.32;91.98
16355;BME280;8287;51.644;8.494;2022-08-01T01:38:21;100293.28;;;22.33;91.71
16355;BME280;8287;51.644;8.494;2022-08-01T01:40:49;100290.97;;;22.21;92.42
16355;BME280;8287;51.644;8.494;2022-08-01T01:43:17;100295.22;;;22.22;92.77
16355;BME280;8287;51.644;8.494;2022-08-01T01:45:45;100294.06;;;22.30;91.99
16355;BME280;8287;51.644;8.494;2022-08-01T01:48:16;100300.63;;;22.22;92.57
16355;BME280;8287;51.644;8.494;2022-08-01T01:50:45;100304.50;;;22.28;92.41
16355;BME280;8287;51.644;8.494;2022-08-01T01:53:14;100305.25;;;22.18;93.21
16355;BME280;8287;51.644;8.494;2022-08-01T01:55:43;100298.31;;;22.17;93.10
16355;BME280;8287;51.644;8.494;2022-08-01T01:58:12;100305.22;;;22.15;93.47
16355;BME280;8287;51.644;8.494;2022-08-01T02:00:40;100299.06;;;22.21;92.95
16355;BME280;8287;51.644;8.494;2022-08-01T02:03:09;100301.00;;;22.17;93.03
16355;BME280;8287;51.644;8.494;2022-08-01T02:05:38;100299.44;;;22.16;93.28
16355;BME280;8287;51.644;8.494;2022-08-01T02:08:07;100301.78;;;22.25;92.32
16355;BME280;8287;51.644;8.494;2022-08-01T02:10:37;100300.59;;;22.15;93.34
16355;BME280;8287;51.644;8.494;2022-08-01T02:13:05;100302.94;;;22.20;92.95
16355;BME280;8287;51.644;8.494;2022-08-01T02:15:34;100302.56;;;22.22;92.62
16355;BME280;8287;51.644;8.494;2022-08-01T02:18:06;100301.78;;;22.21;92.52
16355;BME280;8287;51.644;8.494;2022-08-01T02:20:35;100302.94;;;22.27;91.97
16355;BME280;8287;51.644;8.494;2022-08-01T02:23:07;100302.94;;;22.27;92.00
16355;BME280;8287;51.644;8.494;2022-08-01T02:25:38;100309.88;;;22.28;91.69
16355;BME280;8287;51.644;8.494;2022-08-01T02:28:07;100311.78;;;22.24;91.54
16355;BME280;8287;51.644;8.494;2022-08-01T02:30:36;100312.19;;;22.19;92.23
16355;BME280;8287;51.644;8.494;2022-08-01T02:33:05;100314.09;;;22.19;91.46
16355;BME280;8287;51.644;8.494;2022-08-01T02:35:37;100306.72;;;22.05;90.32
16355;BME280;8287;51.644;8.494;2022-08-01T02:38:06;100309.84;;;22.11;90.26
16355;BME280;8287;51.644;8.494;2022-08-01T02:40:38;100310.22;;;22.09;90.10
16355;BME280;8287;51.644;8.494;2022-08-01T02:43:08;100303.97;;;21.91;90.38
16355;BME280;8287;51.644;8.494;2022-08-01T02:45:37;100317.13;;;21.96;90.61
16355;BME280;8287;51.644;8.494;2022-08-01T02:48:08;100306.66;;;21.91;90.57
16355;BME280;8287;51.644;8.494;2022-08-01T02:50:36;100312.09;;;21.95;90.54
16355;BME280;8287;51.644;8.494;2022-08-01T02:53:06;100305.53;;;21.92;90.11
16355;BME280;8287;51.644;8.494;2022-08-01T02:55:37;100315.94;;;21.94;90.16
16355;BME280;8287;51.644;8.494;2022-08-01T02:58:06;100315.91;;;21.90;90.17
16355;BME280;8287;51.644;8.494;2022-08-01T03:00:34;100317.81;;;21.83;90.59
16355;BME280;8287;51.644;8.494;2022-08-01T03:03:03;100307.81;;;21.83;90.36
16355;BME280;8287;51.644;8.494;2022-08-01T03:05:31;100314.00;;;21.87;90.13
16355;BME280;8287;51.644;8.494;2022-08-01T03:07:59;100312.47;;;21.90;89.94
16355;BME280;8287;51.644;8.494;2022-08-01T03:10:29;100320.94;;;21.88;90.15
16355;BME280;8287;51.644;8.494;2022-08-01T03:12:58;100320.19;;;21.95;89.71
16355;BME280;8287;51.644;8.494;2022-08-01T03:15:27;100322.88;;;21.95;89.91
16355;BME280;8287;51.644;8.494;2022-08-01T03:17:58;100315.50;;;21.85;90.26
16355;BME280;8287;51.644;8.494;2022-08-01T03:20:27;100316.31;;;21.85;90.14
16355;BME280;8287;51.644;8.494;2022-08-01T03:22:56;100321.72;;;21.92;89.90
16355;BME280;8287;51.644;8.494;2022-08-01T03:25:24;100325.16;;;21.89;89.84
16355;BME280;8287;51.644;8.494;2022-08-01T03:27:55;100324.81;;;21.91;89.77
16355;BME280;8287;51.644;8.494;2022-08-01T03:30:23;100326.34;;;21.92;89.85
16355;BME280;8287;51.644;8.494;2022-08-01T03:32:51;100332.09;;;21.90;89.78
16355;BME280;8287;51.644;8.494;2022-08-01T03:35:18;100336.78;;;21.93;89.66
16355;BME280;8287;51.644;8.494;2022-08-01T03:37:47;100329.81;;;21.89;89.88
16355;BME280;8287;51.644;8.494;2022-08-01T03:40:21;100332.44;;;21.78;90.10
16355;BME280;8287;51.644;8.494;2022-08-01T03:42:50;100338.59;;;21.79;90.12
16355;BME280;8287;51.644;8.494;2022-08-01T03:45:23;100338.25;;;21.80;90.25
16355;BME280;8287;51.644;8.494;2022-08-01T03:47:56;100337.47;;;21.76;89.96
16355;BME280;8287;51.644;8.494;2022-08-01T03:50:25;100339.38;;;21.79;89.95
16355;BME280;8287;51.644;8.494;2022-08-01T03:52:53;100335.53;;;21.77;90.26
16355;BME280;8287;51.644;8.494;2022-08-01T03:55:21;100347.13;;;21.84;89.72
16355;BME280;8287;51.644;8.494;2022-08-01T03:57:50;100343.25;;;21.82;89.97
16355;BME280;8287;51.644;8.494;2022-08-01T04:00:17;100345.59;;;21.83;89.82
16355;BME280;8287;51.644;8.494;2022-08-01T04:02:46;100341.34;;;21.86;89.43
16355;BME280;8287;51.644;8.494;2022-08-01T04:05:13;100347.88;;;21.81;89.21
16355;BME280;8287;51.644;8.494;2022-08-01T04:07:45;100338.66;;;21.86;89.29
16355;BME280;8287;51.644;8.494;2022-08-01T04:10:12;100343.66;;;21.84;89.75
16355;BME280;8287;51.644;8.494;2022-08-01T04:12:39;100348.69;;;21.85;89.31
16355;BME280;8287;51.644;8.494;2022-08-01T04:15:07;100347.13;;;21.84;89.03
16355;BME280;8287;51.644;8.494;2022-08-01T04:17:33;100344.03;;;21.86;88.88
16355;BME280;8287;51.644;8.494;2022-08-01T04:20:02;100349.06;;;21.87;88.80
16355;BME280;8287;51.644;8.494;2022-08-01T04:22:28;100348.28;;;21.87;89.14
16355;BME280;8287;51.644;8.494;2022-08-01T04:24:57;100347.13;;;21.84;88.99
16355;BME280;8287;51.644;8.494;2022-08-01T04:27:28;100354.06;;;21.85;88.90
16355;BME280;8287;51.644;8.494;2022-08-01T04:29:56;100360.25;;;21.89;88.47
16355;BME280;8287;51.644;8.494;2022-08-01T04:32:25;100361.78;;;21.87;88.73
16355;BME280;8287;51.644;8.494;2022-08-01T04:34:56;100372.19;;;21.85;89.17
16355;BME280;8287;51.644;8.494;2022-08-01T04:37:25;100367.94;;;21.84;89.13
16355;BME280;8287;51.644;8.494;2022-08-01T04:39:52;100370.28;;;21.89;89.15
16355;BME280;8287;51.644;8.494;2022-08-01T04:42:21;100367.94;;;21.84;90.07
16355;BME280;8287;51.644;8.494;2022-08-01T04:44:48;100374.91;;;21.88;90.13
16355;BME280;8287;51.644;8.494;2022-08-01T04:47:14;100379.50;;;21.84;90.30
16355;BME280;8287;51.644;8.494;2022-08-01T04:49:42;100372.56;;;21.87;89.85
16355;BME280;8287;51.644;8.494;2022-08-01T04:52:11;100378.75;;;21.87;90.23
16355;BME280;8287;51.644;8.494;2022-08-01T04:54:39;100388.00;;;21.86;90.03
16355;BME280;8287;51.644;8.494;2022-08-01T04:57:06;100379.50;;;21.84;90.12
16355;BME280;8287;51.644;8.494;2022-08-01T04:59:37;100381.78;;;21.82;89.96
16355;BME280;8287;51.644;8.494;2022-08-01T05:02:09;100386.06;;;21.83;90.51
16355;BME280;8287;51.644;8.494;2022-08-01T05:04:36;100390.66;;;21.79;90.68
16355;BME280;8287;51.644;8.494;2022-08-01T05:07:03;100389.13;;;21.82;90.53
16355;BME280;8287;51.644;8.494;2022-08-01T05:09:30;100380.22;;;21.78;90.60
16355;BME280;8287;51.644;8.494;2022-08-01T05:11:59;100389.88;;;21.82;90.41
16355;BME280;8287;51.644;8.494;2022-08-01T05:14:27;100385.25;;;21.79;90.78
16355;BME280;8287;51.644;8.494;2022-08-01T05:16:57;100389.50;;;21.80;90.79
16355;BME280;8287;51.644;8.494;2022-08-01T05:19:23;100391.47;;;21.83;90.58
16355;BME280;8287;51.644;8.494;2022-08-01T05:21:50;100395.69;;;21.84;91.03
16355;BME280;8287;51.644;8.494;2022-08-01T05:24:17;100395.31;;;21.86;90.42
16355;BME280;8287;51.644;8.494;2022-08-01T05:26:43;100397.25;;;21.89;90.81
16355;BME280;8287;51.644;8.494;2022-08-01T05:29:11;100397.25;;;21.89;90.65
16355;BME280;8287;51.644;8.494;2022-08-01T05:31:38;100393.00;;;21.84;91.01
16355;BME280;8287;51.644;8.494;2022-08-01T05:34:05;100392.22;;;21.84;90.76
16355;BME280;8287;51.644;8.494;2022-08-01T05:36:31;100399.97;;;21.89;90.59
16355;BME280;8287;51.644;8.494;2022-08-01T05:38:58;100400.72;;;21.89;90.68
16355;BME280;8287;51.644;8.494;2022-08-01T05:41:25;100407.25;;;21.85;90.84
16355;BME280;8287;51.644;8.494;2022-08-01T05:43:51;100408.06;;;21.89;90.23
16355;BME280;8287;51.644;8.494;2022-08-01T05:46:19;100410.38;;;21.94;90.52
16355;BME280;8287;51.644;8.494;2022-08-01T05:48:46;100400.34;;;21.91;90.42
16355;BME280;8287;51.644;8.494;2022-08-01T05:51:13;100404.22;;;21.93;90.36
16355;BME280;8287;51.644;8.494;2022-08-01T05:53:39;100405.38;;;21.92;90.39
16355;BME280;8287;51.644;8.494;2022-08-01T05:56:06;100409.63;;;21.93;89.72
16355;BME280;8287;51.644;8.494;2022-08-01T05:58:33;100413.47;;;21.92;89.76
16355;BME280;8287;51.644;8.494;2022-08-01T06:00:59;100414.94;;;21.83;90.56
16355;BME280;8287;51.644;8.494;2022-08-01T06:03:28;100419.97;;;21.84;90.36
16355;BME280;8287;51.644;8.494;2022-08-01T06:05:56;100418.81;;;21.85;90.59
16355;BME280;8287;51.644;8.494;2022-08-01T06:08:23;100425.41;;;21.91;90.46
16355;BME280;8287;51.644;8.494;2022-08-01T06:10:50;100428.84;;;21.88;90.51
16355;BME280;8287;51.644;8.494;2022-08-01T06:13:16;100426.16;;;21.88;90.57
16355;BME280;8287;51.644;8.494;2022-08-01T06:15:44;100425.81;;;21.93;90.22
16355;BME280;8287;51.644;8.494;2022-08-01T06:18:11;100425.81;;;21.93;90.10
16355;BME280;8287;51.644;8.494;2022-08-01T06:20:39;100425.81;;;21.93;90.22
16355;BME280;8287;51.644;8.494;2022-08-01T06:23:07;100436.94;;;21.88;90.95
16355;BME280;8287;51.644;8.494;2022-08-01T06:25:34;100430.41;;;21.93;90.96
16355;BME280;8287;51.644;8.494;2022-08-01T06:28:01;100432.78;;;21.98;90.86
16355;BME280;8287;51.644;8.494;2022-08-01T06:30:28;100437.75;;;21.92;91.00
16355;BME280;8287;51.644;8.494;2022-08-01T06:32:55;100432.75;;;21.94;90.51
16355;BME280;8287;51.644;8.494;2022-08-01T06:35:24;100428.53;;;21.97;90.67
16355;BME280;8287;51.644;8.494;2022-08-01T06:37:52;100437.03;;;21.99;90.96
16355;BME280;8287;51.644;8.494;2022-08-01T06:40:19;100430.53;;;22.10;90.32
16355;BME280;8287;51.644;8.494;2022-08-01T06:42:45;100435.13;;;22.06;90.67
16355;BME280;8287;51.644;8.494;2022-08-01T06:45:12;100437.81;;;22.06;90.36
16355;BME280;8287;51.644;8.494;2022-08-01T06:47:43;100428.19;;;22.09;90.03
16355;BME280;8287;51.644;8.494;2022-08-01T06:50:10;100433.63;;;22.12;89.64
16355;BME280;8287;51.644;8.494;2022-08-01T06:52:39;100437.44;;;22.08;89.67
16355;BME280;8287;51.644;8.494;2022-08-01T06:55:10;100437.44;;;22.04;89.58
16355;BME280;8287;51.644;8.494;2022-08-01T06:57:45;100433.59;;;22.09;89.44
16355;BME280;8287;51.644;8.494;2022-08-01T07:00:13;100438.69;;;22.24;89.24
16355;BME280;8287;51.644;8.494;2022-08-01T07:02:41;100440.63;;;22.24;89.08
16355;BME280;8287;51.644;8.494;2022-08-01T07:05:08;100433.69;;;22.26;89.65
16355;BME280;8287;51.644;8.494;2022-08-01T07:07:36;100430.59;;;22.24;87.96
16355;BME280;8287;51.644;8.494;2022-08-01T07:10:03;100433.69;;;22.33;88.66
16355;BME280;8287;51.644;8.494;2022-08-01T07:12:31;100428.75;;;22.39;88.72
16355;BME280;8287;51.644;8.494;2022-08-01T07:14:58;100426.09;;;22.42;88.89
16355;BME280;8287;51.644;8.494;2022-08-01T07:17:25;100430.69;;;22.42;88.81
16355;BME280;8287;51.644;8.494;2022-08-01T07:19:51;100426.09;;;22.42;89.12
16355;BME280;8287;51.644;8.494;2022-08-01T07:22:19;100435.72;;;22.43;89.60
16355;BME280;8287;51.644;8.494;2022-08-01T07:24:46;100429.94;;;22.48;89.94
16355;BME280;8287;51.644;8.494;2022-08-01T07:27:13;100433.44;;;22.52;90.10
16355;BME280;8287;51.644;8.494;2022-08-01T07:29:41;100432.72;;;22.66;89.73
16355;BME280;8287;51.644;8.494;2022-08-01T07:32:08;100431.56;;;22.74;89.31
16355;BME280;8287;51.644;8.494;2022-08-01T07:34:34;100433.13;;;22.78;89.39
16355;BME280;8287;51.644;8.494;2022-08-01T07:37:01;100430.44;;;22.78;88.05
16355;BME280;8287;51.644;8.494;2022-08-01T07:39:28;100437.00;;;22.77;87.35
16355;BME280;8287;51.644;8.494;2022-08-01T07:41:54;100435.06;;;22.81;87.29
16355;BME280;8287;51.644;8.494;2022-08-01T07:44:21;100449.34;;;22.82;86.88
16355;BME280;8287;51.644;8.494;2022-08-01T07:46:49;100450.50;;;22.81;86.50
16355;BME280;8287;51.644;8.494;2022-08-01T07:49:16;100463.19;;;22.66;86.13
16355;BME280;8287;51.644;8.494;2022-08-01T07:51:42;100452.00;;;22.64;86.23
16355;BME280;8287;51.644;8.494;2022-08-01T07:54:09;100459.34;;;22.67;86.81
16355;BME280;8287;51.644;8.494;2022-08-01T07:56:36;100462.44;;;22.73;87.09
16355;BME280;8287;51.644;8.494;2022-08-01T07:59:02;100457.06;;;22.76;86.77
16355;BME280;8287;51.644;8.494;2022-08-01T08:01:29;100463.22;;;22.73;86.63
16355;BME280;8287;51.644;8.494;2022-08-01T08:03:57;100463.97;;;22.67;86.33
16355;BME280;8287;51.644;8.494;2022-08-01T08:06:24;100466.97;;;22.41;87.09
16355;BME280;8287;51.644;8.494;2022-08-01T08:08:51;100467.72;;;22.45;86.25
16355;BME280;8287;51.644;8.494;2022-08-01T08:11:18;100473.13;;;22.41;87.50
16355;BME280;8287;51.644;8.494;2022-08-01T08:13:45;100475.84;;;22.48;87.06
16355;BME280;8287;51.644;8.494;2022-08-01T08:16:12;100482.44;;;22.54;87.40
16355;BME280;8287;51.644;8.494;2022-08-01T08:18:38;100471.53;;;22.37;87.87
16355;BME280;8287;51.644;8.494;2022-08-01T08:21:06;100479.38;;;21.88;92.52
16355;BME280;8287;51.644;8.494;2022-08-01T08:23:33;100476.28;;;21.89;91.34
16355;BME280;8287;51.644;8.494;2022-08-01T08:26:26;100473.97;;;21.88;93.54
16355;BME280;8287;51.644;8.494;2022-08-01T08:28:52;100467.56;;;22.13;91.85
16355;BME280;8287;51.644;8.494;2022-08-01T08:31:19;100467.72;;;22.41;90.90
16355;BME280;8287;51.644;8.494;2022-08-01T08:33:45;100470.88;;;22.61;89.51
16355;BME280;8287;51.644;8.494;2022-08-01T08:36:14;100466.72;;;22.77;88.96
16355;BME280;8287;51.644;8.494;2022-08-01T08:38:41;100472.50;;;22.79;89.56
16355;BME280;8287;51.644;8.494;2022-08-01T08:41:08;100477.53;;;22.77;90.12
16355;BME280;8287;51.644;8.494;2022-08-01T08:43:36;100477.53;;;22.81;90.73
16355;BME280;8287;51.644;8.494;2022-08-01T08:46:03;100478.72;;;22.94;88.69
16355;BME280;8287;51.644;8.494;2022-08-01T08:48:31;100475.53;;;22.60;88.65
16355;BME280;8287;51.644;8.494;2022-08-01T08:51:00;100479.22;;;22.31;90.22
16355;BME280;8287;51.644;8.494;2022-08-01T08:53:30;100479.75;;;22.58;88.62
16355;BME280;8287;51.644;8.494;2022-08-01T08:55:58;100485.22;;;22.72;88.68
16355;BME280;8287;51.644;8.494;2022-08-01T08:58:38;100487.94;;;22.86;86.62
16355;BME280;8287;51.644;8.494;2022-08-01T09:02:19;100487.94;;;22.86;87.63
16355;BME280;8287;51.644;8.494;2022-08-01T09:05:58;100490.69;;;22.96;87.81
16355;BME280;8287;51.644;8.494;2022-08-01T09:08:42;100496.50;;;23.05;88.57
16355;BME280;8287;51.644;8.494;2022-08-01T09:14:57;100502.34;;;23.14;85.69
16355;BME280;8287;51.644;8.494;2022-08-01T09:17:56;100507.28;;;22.91;85.45
16355;BME280;8287;51.644;8.494;2022-08-01T09:20:34;100506.78;;;22.61;88.67
16355;BME280;8287;51.644;8.494;2022-08-01T09:23:49;100509.28;;;22.23;88.19
16355;BME280;8287;51.644;8.494;2022-08-01T09:27:25;100517.31;;;22.16;89.58
16355;BME280;8287;51.644;8.494;2022-08-01T09:34:39;100516.38;;;22.48;89.38
16355;BME280;8287;51.644;8.494;2022-08-01T09:37:14;100511.84;;;22.73;88.33
16355;BME280;8287;51.644;8.494;2022-08-01T09:40:24;100521.81;;;22.55;89.28
16355;BME280;8287;51.644;8.494;2022-08-01T09:43:30;100529.59;;;22.67;88.83
16355;BME280;8287;51.644;8.494;2022-08-01T09:46:12;100527.16;;;22.48;87.49
16355;BME280;8287;51.644;8.494;2022-08-01T09:48:54;100533.31;;;22.42;90.52
16355;BME280;8287;51.644;8.494;2022-08-01T09:51:28;100525.69;;;22.58;90.03
16355;BME280;8287;51.644;8.494;2022-08-01T09:53:55;100534.94;;;22.53;90.27
16355;BME280;8287;51.644;8.494;2022-08-01T09:56:22;100538.41;;;22.61;89.68
16355;BME280;8287;51.644;8.494;2022-08-01T09:58:52;100538.09;;;22.73;88.27
16355;BME280;8287;51.644;8.494;2022-08-01T10:01:20;100528.47;;;22.72;88.82
16355;BME280;8287;51.644;8.494;2022-08-01T10:04:03;100535.00;;;22.74;87.61
16355;BME280;8287;51.644;8.494;2022-08-01T10:06:30;100536.56;;;22.75;86.75
16355;BME280;8287;51.644;8.494;2022-08-01T10:08:57;100538.88;;;22.77;87.86
16355;BME280;8287;51.644;8.494;2022-08-01T10:11:24;100540.09;;;22.90;87.15
16355;BME280;8287;51.644;8.494;2022-08-01T10:14:08;100539.34;;;22.96;87.94
16355;BME280;8287;51.644;8.494;2022-08-01T10:23:03;100560.47;;;22.70;87.74
16355;BME280;8287;51.644;8.494;2022-08-01T10:25:34;100555.41;;;22.61;88.46
16355;BME280;8287;51.644;8.494;2022-08-01T10:28:08;100558.47;;;22.60;88.11
16355;BME280;8287;51.644;8.494;2022-08-01T10:30:37;100551.09;;;22.50;88.08
16355;BME280;8287;51.644;8.494;2022-08-01T10:33:04;100556.50;;;22.46;88.29
16355;BME280;8287;51.644;8.494;2022-08-01T10:35:31;100550.75;;;22.51;88.12
16355;BME280;8287;51.644;8.494;2022-08-01T10:37:58;100549.94;;;22.47;87.61
16355;BME280;8287;51.644;8.494;2022-08-01T10:40:26;100532.63;;;22.59;87.22
16355;BME280;8287;51.644;8.494;2022-08-01T10:42:53;100535.41;;;22.73;88.11
16355;BME280;8287;51.644;8.494;2022-08-01T10:45:20;100536.59;;;22.82;88.31
16355;BME280;8287;51.644;8.494;2022-08-01T10:47:53;100527.75;;;22.99;87.94
16355;BME280;8287;51.644;8.494;2022-08-01T10:50:25;100534.28;;;22.91;87.88
16355;BME280;8287;51.644;8.494;2022-08-01T10:53:14;100527.50;;;23.22;89.24
16355;BME280;8287;51.644;8.494;2022-08-01T10:55:51;100527.06;;;23.20;89.92
16355;BME280;8287;51.644;8.494;2022-08-01T10:58:23;100523.59;;;23.16;90.96
16355;BME280;8287;51.644;8.494;2022-08-01T11:01:14;100517.47;;;23.43;87.69
16355;BME280;8287;51.644;8.494;2022-08-01T11:03:42;100515.94;;;23.60;86.39
16355;BME280;8287;51.644;8.494;2022-08-01T11:06:15;100519.78;;;23.62;84.97
16355;BME280;8287;51.644;8.494;2022-08-01T11:08:51;100523.66;;;23.75;85.38
16355;BME280;8287;51.644;8.494;2022-08-01T11:11:21;100522.50;;;23.73;86.39
16355;BME280;8287;51.644;8.494;2022-08-01T11:14:04;100525.59;;;23.96;84.83
16355;BME280;8287;51.644;8.494;2022-08-01T11:16:36;100524.44;;;24.07;84.80
16355;BME280;8287;51.644;8.494;2022-08-01T11:19:04;100525.16;;;24.18;84.35
16355;BME280;8287;51.644;8.494;2022-08-01T11:21:59;100523.63;;;24.24;84.33
16355;BME280;8287;51.644;8.494;2022-08-01T11:25:02;100534.88;;;24.05;83.61
16355;BME280;8287;51.644;8.494;2022-08-01T11:27:31;100524.06;;;23.77;86.88
16355;BME280;8287;51.644;8.494;2022-08-01T11:30:22;100527.91;;;24.15;84.61
16355;BME280;8287;51.644;8.494;2022-08-01T11:32:52;100524.44;;;23.76;84.13
16355;BME280;8287;51.644;8.494;2022-08-01T11:35:19;100522.88;;;23.99;85.82
16355;BME280;8287;51.644;8.494;2022-08-01T11:37:49;100517.47;;;23.92;87.52
16355;BME280;8287;51.644;8.494;2022-08-01T11:40:21;100517.06;;;24.18;84.58
16355;BME280;8287;51.644;8.494;2022-08-01T11:42:51;100523.56;;;24.48;82.92
16355;BME280;8287;51.644;8.494;2022-08-01T11:45:46;100531.38;;;23.70;86.24
16355;BME280;8287;51.644;8.494;2022-08-01T11:48:18;100527.13;;;23.69;85.59
16355;BME280;8287;51.644;8.494;2022-08-01T11:50:45;100529.09;;;23.86;86.68
16355;BME280;8287;51.644;8.494;2022-08-01T11:53:12;100533.72;;;24.17;83.89
16355;BME280;8287;51.644;8.494;2022-08-01T11:55:44;100519.69;;;24.46;83.95
16355;BME280;8287;51.644;8.494;2022-08-01T11:58:12;100522.88;;;24.17;82.38
16355;BME280;8287;51.644;8.494;2022-08-01T12:00:39;100522.41;;;24.49;81.85
16355;BME280;8287;51.644;8.494;2022-08-01T12:03:08;100518.53;;;24.47;81.36
16355;BME280;8287;51.644;8.494;2022-08-01T12:05:35;100534.38;;;24.59;80.04
16355;BME280;8287;51.644;8.494;2022-08-01T12:08:03;100539.13;;;24.06;80.05
16355;BME280;8287;51.644;8.494;2022-08-01T12:10:33;100538.31;;;24.37;78.51
16355;BME280;8287;51.644;8.494;2022-08-01T12:13:05;100533.59;;;24.69;78.06
16355;BME280;8287;51.644;8.494;2022-08-01T12:15:34;100539.63;;;24.97;77.83
16355;BME280;8287;51.644;8.494;2022-08-01T12:18:02;100539.97;;;25.10;76.46
16355;BME280;8287;51.644;8.494;2022-08-01T12:20:31;100559.09;;;24.82;77.85
16355;BME280;8287;51.644;8.494;2022-08-01T12:23:00;100550.72;;;23.75;81.61
16355;BME280;8287;51.644;8.494;2022-08-01T12:25:28;100541.88;;;23.85;81.23
16355;BME280;8287;51.644;8.494;2022-08-01T12:27:59;100552.66;;;24.23;81.91
16355;BME280;8287;51.644;8.494;2022-08-01T12:30:26;100548.41;;;23.77;82.80
16355;BME280;8287;51.644;8.494;2022-08-01T12:32:55;100553.66;;;24.85;77.57
16355;BME280;8287;51.644;8.494;2022-08-01T12:35:23;100556.91;;;24.21;80.81
16355;BME280;8287;51.644;8.494;2022-08-01T12:37:52;100557.59;;;24.67;78.05
16355;BME280;8287;51.644;8.494;2022-08-01T12:40:20;100560.34;;;24.39;76.68
16355;BME280;8287;51.644;8.494;2022-08-01T12:42:52;100560.00;;;24.09;77.36
16355;BME280;8287;51.644;8.494;2022-08-01T12:45:21;100567.88;;;25.07;74.08
16355;BME280;8287;51.644;8.494;2022-08-01T12:47:51;100573.88;;;24.53;75.94
16355;BME280;8287;51.644;8.494;2022-08-01T12:50:21;100574.88;;;24.97;73.33
16355;BME280;8287;51.644;8.494;2022-08-01T12:52:48;100572.34;;;25.45;71.43
16355;BME280;8287;51.644;8.494;2022-08-01T12:55:16;100575.69;;;25.66;71.96
16355;BME280;8287;51.644;8.494;2022-08-01T12:57:45;100585.63;;;25.29;72.26
16355;BME280;8287;51.644;8.494;2022-08-01T13:00:17;100582.94;;;25.15;70.86
16355;BME280;8287;51.644;8.494;2022-08-01T13:02:46;100576.81;;;25.07;71.39
16355;BME280;8287;51.644;8.494;2022-08-01T13:05:13;100585.19;;;25.37;71.51
16355;BME280;8287;51.644;8.494;2022-08-01T13:07:47;100578.75;;;25.72;71.94
16355;BME280;8287;51.644;8.494;2022-08-01T13:10:24;100581.28;;;25.38;71.75
16355;BME280;8287;51.644;8.494;2022-08-01T13:12:53;100579.47;;;25.76;68.91
16355;BME280;8287;51.644;8.494;2022-08-01T13:15:26;100580.94;;;25.91;70.22
16355;BME280;8287;51.644;8.494;2022-08-01T13:17:53;100576.63;;;25.46;71.34
16355;BME280;8287;51.644;8.494;2022-08-01T13:20:29;100580.63;;;25.78;72.03
16355;BME280;8287;51.644;8.494;2022-08-01T13:23:14;100578.06;;;26.12;71.34
16355;BME280;8287;51.644;8.494;2022-08-01T13:25:49;100578.22;;;26.35;69.90
16355;BME280;8287;51.644;8.494;2022-08-01T13:28:17;100587.19;;;25.88;66.95
16355;BME280;8287;51.644;8.494;2022-08-01T13:30:51;100584.34;;;25.47;67.86
16355;BME280;8287;51.644;8.494;2022-08-01T13:33:18;100591.28;;;24.59;71.25